createdAt,value
2023-04-18T00:01:56.843Z,97523.78
2023-04-18T00:04:27.014Z,97528.31
2023-04-18T00:06:55.845Z,97523.34
2023-04-18T00:09:24.638Z,97517.16
2023-04-18T00:11:52.958Z,97517.25
2023-04-18T00:14:21.282Z,97523.25
2023-04-18T00:16:49.737Z,97526.94
2023-04-18T00:19:18.416Z,97522.59
2023-04-18T00:21:48.123Z,97523.44
2023-04-18T00:24:16.736Z,97523.78
2023-04-18T00:26:44.858Z,97516.00
2023-04-18T00:29:13.023Z,97515.38
2023-04-18T00:31:41.079Z,97522.19
2023-04-18T00:34:09.382Z,97516.09
2023-04-18T00:36:37.644Z,97520.44
2023-04-18T00:39:07.614Z,97522.94
2023-04-18T00:41:36.178Z,97524.06
2023-04-18T00:44:04.963Z,97517.16
2023-04-18T00:46:33.408Z,97516.66
2023-04-18T00:49:02.155Z,97512.81
2023-04-18T00:51:30.561Z,97513.81
2023-04-18T00:53:58.764Z,97512.16
2023-04-18T00:56:28.813Z,97514.91
2023-04-18T00:59:00.070Z,97511.56
2023-04-18T01:01:28.514Z,97510.91
2023-04-18T01:03:56.952Z,97516.00
2023-04-18T01:06:25.363Z,97517.66
2023-04-18T01:08:54.044Z,97510.00
2023-04-18T01:11:22.217Z,97516.00
2023-04-18T01:14:02.181Z,97513.72
2023-04-18T01:16:32.849Z,97514.63
2023-04-18T01:19:01.092Z,97506.31
2023-04-18T01:21:31.269Z,97500.97
2023-04-18T01:24:04.549Z,97508.53
2023-04-18T01:26:34.333Z,97505.97
2023-04-18T01:29:06.388Z,97506.22
2023-04-18T01:31:35.565Z,97516.72
2023-04-18T01:34:03.708Z,97512.66
2023-04-18T01:36:32.010Z,97515.72
2023-04-18T01:39:00.827Z,97511.09
2023-04-18T01:41:32.787Z,97515.03
2023-04-18T01:44:02.677Z,97512.44
2023-04-18T01:46:31.071Z,97510.16
2023-04-18T01:49:00.884Z,97506.81
2023-04-18T01:51:29.029Z,97515.50
2023-04-18T01:53:57.177Z,97512.63
2023-04-18T01:56:25.862Z,97510.88
2023-04-18T01:58:53.952Z,97511.97
2023-04-18T02:01:25.399Z,97509.28
2023-04-18T02:03:54.274Z,97506.72
2023-04-18T02:06:22.654Z,97500.22
2023-04-18T02:08:50.913Z,97501.41
2023-04-18T02:11:19.245Z,97498.75
2023-04-18T02:13:47.361Z,97493.28
2023-04-18T02:16:15.830Z,97504.38
2023-04-18T02:18:46.538Z,97501.13
2023-04-18T02:21:15.408Z,97497.19
2023-04-18T02:23:43.433Z,97494.88
2023-04-18T02:26:11.651Z,97494.53
2023-04-18T02:28:40.150Z,97495.16
2023-04-18T02:31:14.567Z,97503.00
2023-04-18T02:33:43.542Z,97506.34
2023-04-18T02:36:14.062Z,97498.59
2023-04-18T02:38:44.989Z,97503.38
2023-04-18T02:41:17.519Z,97497.53
2023-04-18T02:43:45.585Z,97501.63
2023-04-18T02:46:15.568Z,97495.22
2023-04-18T02:48:46.407Z,97493.81
2023-04-18T02:51:17.681Z,97506.16
2023-04-18T02:53:47.311Z,97498.41
2023-04-18T02:56:18.912Z,97504.34
2023-04-18T02:59:08.161Z,97507.09
2023-04-18T03:01:54.941Z,97504.94
2023-04-18T03:04:24.196Z,97503.44
2023-04-18T03:06:59.385Z,97507.28
2023-04-18T03:09:29.687Z,97511.50
2023-04-18T03:12:03.488Z,97515.28
2023-04-18T03:14:33.070Z,97520.19
2023-04-18T03:17:01.385Z,97521.94
2023-04-18T03:19:36.541Z,97515.75
2023-04-18T03:22:10.680Z,97514.91
2023-04-18T03:24:46.104Z,97514.19
2023-04-18T03:27:14.610Z,97516.66
2023-04-18T03:29:44.668Z,97512.88
2023-04-18T03:32:13.312Z,97518.78
2023-04-18T03:34:41.838Z,97516.78
2023-04-18T03:37:12.348Z,97509.44
2023-04-18T03:39:46.598Z,97512.69
2023-04-18T03:42:15.247Z,97506.78
2023-04-18T03:44:44.446Z,97511.34
2023-04-18T03:47:14.642Z,97517.19
2023-04-18T03:49:45.347Z,97519.03
2023-04-18T03:52:16.135Z,97517.56
2023-04-18T03:54:44.412Z,97518.19
2023-04-18T03:57:18.222Z,97520.22
2023-04-18T03:59:47.934Z,97517.06
2023-04-18T04:02:17.031Z,97517.88
2023-04-18T04:04:45.529Z,97517.56
2023-04-18T04:07:15.218Z,97520.22
2023-04-18T04:09:43.620Z,97523.44
2023-04-18T04:12:11.719Z,97516.22
2023-04-18T04:14:40.460Z,97528.28
2023-04-18T04:17:08.591Z,97530.72
2023-04-18T04:19:37.949Z,97532.22
2023-04-18T04:22:11.010Z,97535.97
2023-04-18T04:24:43.032Z,97530.13
2023-04-18T04:27:14.137Z,97536.13
2023-04-18T04:29:43.876Z,97536.03
2023-04-18T04:32:12.965Z,97540.22
2023-04-18T04:34:42.379Z,97532.47
2023-04-18T04:37:14.110Z,97533.28
2023-04-18T04:40:01.111Z,97545.97
2023-04-18T04:42:54.546Z,97538.94
2023-04-18T04:45:33.228Z,97536.28
2023-04-18T04:48:02.163Z,97538.78
2023-04-18T04:50:30.403Z,97540.28
2023-04-18T04:52:58.571Z,97542.69
2023-04-18T04:55:28.289Z,97550.59
2023-04-18T04:57:57.483Z,97548.94
2023-04-18T05:00:39.849Z,97553.19
2023-04-18T05:03:09.254Z,97557.53
2023-04-18T05:05:37.635Z,97552.59
2023-04-18T05:08:06.519Z,97549.09
2023-04-18T05:10:37.186Z,97557.44
2023-04-18T05:13:06.263Z,97559.28
2023-04-18T05:15:34.683Z,97562.63
2023-04-18T05:18:03.289Z,97559.59
2023-04-18T05:20:31.556Z,97560.28
2023-04-18T05:23:00.379Z,97560.44
2023-04-18T05:25:29.919Z,97562.03
2023-04-18T05:28:01.504Z,97569.94
2023-04-18T05:30:30.026Z,97560.03
2023-04-18T05:32:58.261Z,97566.09
2023-04-18T05:35:26.836Z,97561.09
2023-04-18T05:37:55.030Z,97565.34
2023-04-18T05:40:23.639Z,97560.88
2023-04-18T05:42:51.738Z,97563.00
2023-04-18T05:45:21.398Z,97561.91
2023-04-18T05:47:49.517Z,97561.91
2023-04-18T05:50:18.104Z,97568.69
2023-04-18T05:52:46.400Z,97565.94
2023-04-18T05:55:14.627Z,97569.22
2023-04-18T05:57:43.118Z,97572.59
2023-04-18T06:00:12.933Z,97573.84
2023-04-18T06:02:43.395Z,97576.28
2023-04-18T06:05:12.273Z,97576.00
2023-04-18T06:07:40.887Z,97579.78
2023-04-18T06:10:13.413Z,97571.13
2023-04-18T06:12:42.063Z,97577.75
2023-04-18T06:15:12.085Z,97579.03
2023-04-18T06:17:40.349Z,97588.00
2023-04-18T06:20:11.089Z,97585.19
2023-04-18T06:22:39.686Z,97585.84
2023-04-18T06:25:10.247Z,97578.03
2023-04-18T06:27:39.445Z,97587.16
2023-04-18T06:30:08.909Z,97585.84
2023-04-18T06:32:37.161Z,97595.13
2023-04-18T06:35:06.337Z,97596.13
2023-04-18T06:37:36.075Z,97586.00
2023-04-18T06:40:05.022Z,97593.75
2023-04-18T06:42:33.566Z,97592.09
2023-04-18T06:45:04.896Z,97588.91
2023-04-18T06:47:34.158Z,97589.81
2023-04-18T06:50:02.312Z,97598.69
2023-04-18T06:52:30.939Z,97598.25
2023-04-18T06:55:00.920Z,97601.34
2023-04-18T06:57:29.621Z,97599.66
2023-04-18T06:59:57.742Z,97596.16
2023-04-18T07:02:26.617Z,97596.41
2023-04-18T07:04:54.855Z,97591.16
2023-04-18T07:07:23.641Z,97594.91
2023-04-18T07:09:52.862Z,97588.22
2023-04-18T07:12:22.737Z,97587.66
2023-04-18T07:14:52.457Z,97597.97
2023-04-18T07:17:20.864Z,97599.31
2023-04-18T07:19:49.691Z,97596.94
2023-04-18T07:22:17.872Z,97605.28
2023-04-18T07:24:47.033Z,97604.19
2023-04-18T07:27:16.130Z,97605.66
2023-04-18T07:29:45.890Z,97600.94
2023-04-18T07:32:14.330Z,97597.34
2023-04-18T07:34:42.856Z,97598.09
2023-04-18T07:37:14.122Z,97605.50
2023-04-18T07:39:43.218Z,97602.06
2023-04-18T07:42:11.473Z,97601.59
2023-04-18T07:44:40.368Z,97606.91
2023-04-18T07:47:11.174Z,97606.44
2023-04-18T07:49:40.544Z,97608.88
2023-04-18T07:52:09.082Z,97605.53
2023-04-18T07:54:37.757Z,97610.41
2023-04-18T07:57:06.828Z,97615.03
2023-04-18T07:59:35.432Z,97616.78
2023-04-18T08:02:04.248Z,97611.19
2023-04-18T08:04:33.932Z,97619.47
2023-04-18T08:07:02.241Z,97618.53
2023-04-18T08:09:30.878Z,97623.06
2023-04-18T08:12:00.590Z,97624.56
2023-04-18T08:14:29.120Z,97624.63
2023-04-18T08:16:57.732Z,97616.63
2023-04-18T08:19:26.399Z,97619.53
2023-04-18T08:22:07.885Z,97609.53
2023-04-18T08:24:36.343Z,97616.69
2023-04-18T08:27:04.996Z,97618.69
2023-04-18T08:29:33.343Z,97614.44
2023-04-18T08:32:03.254Z,97613.81
2023-04-18T08:34:34.177Z,97618.97
2023-04-18T08:37:03.932Z,97613.00
2023-04-18T08:39:32.348Z,97619.63
2023-04-18T08:42:01.849Z,97628.59
2023-04-18T08:44:30.799Z,97620.13
2023-04-18T08:47:02.329Z,97618.88
2023-04-18T08:49:32.106Z,97625.19
2023-04-18T08:52:02.703Z,97628.53
2023-04-18T08:54:32.894Z,97633.69
2023-04-18T08:57:07.557Z,97638.66
2023-04-18T08:59:37.075Z,97631.81
2023-04-18T09:02:10.235Z,97628.53
2023-04-18T09:04:41.529Z,97630.38
2023-04-18T09:07:11.726Z,97635.03
2023-04-18T09:09:48.960Z,97643.19
2023-04-18T09:12:19.749Z,97635.78
2023-04-18T09:14:48.642Z,97634.25
2023-04-18T09:17:33.523Z,97632.22
2023-04-18T09:20:05.193Z,97638.56
2023-04-18T09:22:51.494Z,97637.41
2023-04-18T09:25:29.499Z,97642.19
2023-04-18T09:28:01.289Z,97640.16
2023-04-18T09:30:35.307Z,97637.94
2023-04-18T09:33:05.067Z,97643.75
2023-04-18T09:35:33.805Z,97641.53
2023-04-18T09:38:02.157Z,97645.25
2023-04-18T09:40:31.826Z,97640.81
2023-04-18T09:43:00.628Z,97650.34
2023-04-18T09:45:28.859Z,97648.41
2023-04-18T09:47:57.670Z,97653.19
2023-04-18T09:50:26.076Z,97647.75
2023-04-18T09:52:56.155Z,97647.75
2023-04-18T09:55:24.498Z,97646.25
2023-04-18T09:57:55.065Z,97647.34
2023-04-18T10:00:26.670Z,97651.19
2023-04-18T10:02:59.635Z,97654.78
2023-04-18T10:05:30.256Z,97650.72
2023-04-18T10:07:59.186Z,97655.13
2023-04-18T10:10:28.342Z,97653.75
2023-04-18T10:13:01.179Z,97650.88
2023-04-18T10:15:32.231Z,97660.31
2023-04-18T10:18:05.752Z,97659.94
2023-04-18T10:20:36.427Z,97659.13
2023-04-18T10:23:36.201Z,97663.53
2023-04-18T10:26:05.663Z,97654.84
2023-04-18T10:28:56.843Z,97657.72
2023-04-18T10:31:27.227Z,97668.81
2023-04-18T10:34:04.027Z,97667.53
2023-04-18T10:36:34.189Z,97669.22
2023-04-18T10:39:04.657Z,97672.81
2023-04-18T10:41:35.080Z,97673.38
2023-04-18T10:44:28.927Z,97669.72
2023-04-18T10:47:23.316Z,97671.88
2023-04-18T10:50:01.432Z,97678.25
2023-04-18T10:52:30.676Z,97673.25
2023-04-18T10:55:18.661Z,97670.88
2023-04-18T10:57:48.693Z,97665.69
2023-04-18T11:00:22.102Z,97674.00
2023-04-18T11:02:53.860Z,97668.09
2023-04-18T11:05:24.599Z,97662.66
2023-04-18T11:07:53.021Z,97663.38
2023-04-18T11:10:23.891Z,97653.03
2023-04-18T11:12:52.800Z,97650.28
2023-04-18T11:15:24.799Z,97661.91
2023-04-18T11:17:58.514Z,97660.06
2023-04-18T11:20:27.473Z,97665.81
2023-04-18T11:22:57.556Z,97653.50
2023-04-18T11:25:28.336Z,97649.34
2023-04-18T11:28:00.634Z,97656.06
2023-04-18T11:30:38.536Z,97663.41
2023-04-18T11:33:08.491Z,97675.44
2023-04-18T11:35:41.476Z,97672.19
2023-04-18T11:38:11.837Z,97666.75
2023-04-18T11:40:40.563Z,97671.09
2023-04-18T11:43:09.107Z,97665.69
2023-04-18T11:45:38.819Z,97659.66
2023-04-18T11:48:07.231Z,97660.22
2023-04-18T11:50:38.282Z,97663.09
2023-04-18T11:53:06.744Z,97658.56
2023-04-18T11:55:35.521Z,97665.25
2023-04-18T11:58:04.483Z,97660.97
2023-04-18T12:00:35.453Z,97655.97
2023-04-18T12:03:08.442Z,97658.63
2023-04-18T12:05:40.106Z,97657.81
2023-04-18T12:08:09.841Z,97655.13
2023-04-18T12:10:39.357Z,97649.22
2023-04-18T12:13:09.562Z,97661.16
2023-04-18T12:15:40.040Z,97660.78
2023-04-18T12:18:09.875Z,97657.81
2023-04-18T12:20:39.998Z,97651.19
2023-04-18T12:23:08.455Z,97662.38
2023-04-18T12:25:37.275Z,97661.78
2023-04-18T12:28:15.961Z,97657.06
2023-04-18T12:30:44.050Z,97659.09
2023-04-18T12:33:13.688Z,97658.72
2023-04-18T12:35:42.655Z,97661.31
2023-04-18T12:38:11.228Z,97659.63
2023-04-18T12:40:40.662Z,97659.84
2023-04-18T12:43:11.075Z,97656.13
2023-04-18T12:45:39.927Z,97655.59
2023-04-18T12:48:08.390Z,97652.13
2023-04-18T12:50:38.510Z,97646.72
2023-04-18T12:53:18.233Z,97651.63
2023-04-18T13:00:39.638Z,97648.97
2023-04-18T13:03:10.351Z,97650.84
2023-04-18T13:05:42.186Z,97660.56
2023-04-18T13:11:54.557Z,97649.53
2023-04-18T13:14:24.392Z,97640.22
2023-04-18T13:16:53.233Z,97638.34
2023-04-18T13:19:22.503Z,97645.91
2023-04-18T13:21:53.337Z,97645.69
2023-04-18T13:24:22.061Z,97641.53
2023-04-18T13:26:50.780Z,97645.13
2023-04-18T13:29:21.679Z,97636.31
2023-04-18T13:31:55.026Z,97631.91
2023-04-18T13:34:23.691Z,97628.38
2023-04-18T13:36:53.991Z,97640.22
2023-04-18T13:39:24.718Z,97630.59
2023-04-18T13:41:54.706Z,97640.03
2023-04-18T13:44:24.906Z,97629.59
2023-04-18T13:46:54.595Z,97630.03
2023-04-18T13:49:22.818Z,97637.53
2023-04-18T13:51:53.694Z,97638.47
2023-04-18T13:54:24.714Z,97638.66
2023-04-18T13:56:53.125Z,97639.31
2023-04-18T13:59:21.530Z,97637.72
2023-04-18T14:01:50.822Z,97645.50
2023-04-18T14:04:19.564Z,97637.16
2023-04-18T14:06:48.914Z,97652.34
2023-04-18T14:09:17.470Z,97647.91
2023-04-18T14:11:48.078Z,97643.56
2023-04-18T14:14:16.378Z,97645.69
2023-04-18T14:16:44.792Z,97655.78
2023-04-18T14:19:13.467Z,97643.66
2023-04-18T14:21:42.059Z,97631.03
2023-04-18T14:27:33.010Z,97630.69
2023-04-18T14:30:01.807Z,97632.78
2023-04-18T14:32:31.558Z,97639.22
2023-04-18T14:35:00.259Z,97637.91
2023-04-18T14:37:28.352Z,97641.53
2023-04-18T14:39:56.887Z,97637.16
2023-04-18T14:42:25.138Z,97636.91
2023-04-18T14:44:55.618Z,97636.41
2023-04-18T14:47:27.016Z,97638.47
2023-04-18T14:49:55.256Z,97638.47
2023-04-18T14:52:23.451Z,97639.13
2023-04-18T14:54:52.607Z,97647.81
2023-04-18T14:57:47.483Z,97639.31
2023-04-18T15:00:19.239Z,97640.13
2023-04-18T15:02:47.985Z,97640.78
2023-04-18T15:05:17.940Z,97635.97
2023-04-18T15:07:47.078Z,97635.19
2023-04-18T15:10:15.364Z,97637.09
2023-04-18T15:12:43.751Z,97628.88
2023-04-18T15:15:12.699Z,97636.84
2023-04-18T15:17:42.499Z,97634.16
2023-04-18T15:20:11.373Z,97631.13
2023-04-18T15:22:39.660Z,97634.03
2023-04-18T15:25:08.535Z,97634.84
2023-04-18T15:27:36.621Z,97635.78
2023-04-18T15:30:08.629Z,97637.69
2023-04-18T15:32:38.990Z,97634.91
2023-04-18T15:35:10.220Z,97635.09
2023-04-18T15:37:40.231Z,97627.13
2023-04-18T15:40:11.757Z,97621.34
2023-04-18T15:42:41.067Z,97635.97
2023-04-18T15:45:13.663Z,97632.75
2023-04-18T15:51:49.188Z,97637.44
2023-04-18T15:54:17.913Z,97636.53
2023-04-18T15:56:46.531Z,97641.19
2023-04-18T15:59:14.979Z,97642.03
2023-04-18T16:01:45.653Z,97644.72
2023-04-18T16:04:15.324Z,97650.75
2023-04-18T16:06:55.097Z,97646.28
2023-04-18T16:09:24.261Z,97649.91
2023-04-18T16:11:52.660Z,97653.75
2023-04-18T16:14:21.144Z,97644.22
2023-04-18T16:16:49.880Z,97643.25
2023-04-18T16:19:19.599Z,97646.06
2023-04-18T16:21:49.117Z,97644.31
2023-04-18T16:24:19.407Z,97640.03
2023-04-18T16:26:47.845Z,97641.19
2023-04-18T16:29:16.088Z,97644.00
2023-04-18T16:31:44.720Z,97635.38
2023-04-18T16:34:13.204Z,97635.38
2023-04-18T16:36:43.302Z,97636.00
2023-04-18T16:39:11.623Z,97637.22
2023-04-18T16:41:41.078Z,97639.31
2023-04-18T16:44:09.931Z,97640.97
2023-04-18T16:46:38.203Z,97637.44
2023-04-18T16:49:06.528Z,97642.53
2023-04-18T16:51:36.271Z,97634.75
2023-04-18T16:54:05.218Z,97638.69
2023-04-18T16:56:33.548Z,97634.13
2023-04-18T16:59:04.141Z,97635.78
2023-04-18T17:01:34.144Z,97638.38
2023-04-18T17:04:04.496Z,97646.06
2023-04-18T17:06:33.289Z,97637.22
2023-04-18T17:09:02.334Z,97637.44
2023-04-18T17:11:32.554Z,97650.69
2023-04-18T17:14:01.816Z,97637.44
2023-04-18T17:16:32.124Z,97638.38
2023-04-18T17:19:51.352Z,97638.28
2023-04-18T17:22:19.812Z,97639.31
2023-04-18T17:24:48.141Z,97635.78
2023-04-18T17:27:17.137Z,97636.44
2023-04-18T17:29:45.777Z,97641.31
2023-04-18T17:32:15.758Z,97642.78
2023-04-18T17:34:44.470Z,97642.69
2023-04-18T17:37:12.692Z,97642.03
2023-04-18T17:39:41.541Z,97649.19
2023-04-18T17:42:10.512Z,97648.34
2023-04-18T17:44:39.849Z,97650.09
2023-04-18T17:47:08.216Z,97651.78
2023-04-18T17:49:37.733Z,97648.34
2023-04-18T17:52:07.060Z,97649.50
2023-04-18T17:54:35.211Z,97654.69
2023-04-18T17:57:04.664Z,97653.75
2023-04-18T17:59:38.005Z,97651.34
2023-04-18T18:02:06.799Z,97662.56
2023-04-18T18:04:35.415Z,97660.06
2023-04-18T18:07:06.432Z,97656.53
2023-04-18T18:09:34.836Z,97665.25
2023-04-18T18:12:04.252Z,97664.22
2023-04-18T18:14:32.502Z,97662.47
2023-04-18T18:17:01.189Z,97666.25
2023-04-18T18:19:29.931Z,97667.09
2023-04-18T18:21:58.003Z,97671.44
2023-04-18T18:24:28.131Z,97663.75
2023-04-18T18:26:58.223Z,97664.41
2023-04-18T18:29:26.858Z,97672.28
2023-04-18T18:31:55.120Z,97667.19
2023-04-18T18:34:23.454Z,97673.94
2023-04-18T18:36:51.694Z,97672.19
2023-04-18T18:39:20.233Z,97671.44
2023-04-18T18:41:49.720Z,97675.06
2023-04-18T18:44:18.067Z,97681.19
2023-04-18T18:46:46.193Z,97682.00
2023-04-18T18:49:14.525Z,97678.41
2023-04-18T18:51:44.500Z,97677.47
2023-04-18T18:54:13.348Z,97677.38
2023-04-18T18:56:42.733Z,97679.88
2023-04-18T18:59:12.719Z,97676.25
2023-04-18T19:01:41.513Z,97675.63
2023-04-18T19:04:09.686Z,97672.09
2023-04-18T19:06:38.326Z,97672.47
2023-04-18T19:09:07.536Z,97672.28
2023-04-18T19:11:35.841Z,97669.69
2023-04-18T19:14:04.185Z,97673.22
2023-04-18T19:16:34.195Z,97669.78
2023-04-18T19:19:05.611Z,97672.28
2023-04-18T19:22:00.635Z,97673.13
2023-04-18T19:24:28.857Z,97668.94
2023-04-18T19:26:56.972Z,97668.75
2023-04-18T19:29:25.370Z,97664.69
2023-04-18T19:31:55.142Z,97661.75
2023-04-18T19:34:24.031Z,97659.34
2023-04-18T19:36:52.335Z,97658.06
2023-04-18T19:39:21.426Z,97661.03
2023-04-18T19:41:49.745Z,97655.94
2023-04-18T19:44:17.857Z,97657.69
2023-04-18T19:46:46.082Z,97651.94
2023-04-18T19:49:15.870Z,97654.44
2023-04-18T19:51:44.761Z,97656.03
2023-04-18T19:54:13.352Z,97655.94
2023-04-18T19:56:41.414Z,97656.13
2023-04-18T19:59:09.899Z,97656.13
2023-04-18T20:01:38.104Z,97666.50
2023-04-18T20:04:08.380Z,97661.31
2023-04-18T20:06:37.894Z,97657.78
2023-04-18T20:09:08.666Z,97662.59
2023-04-18T20:11:37.341Z,97647.13
2023-04-18T20:14:05.735Z,97656.25
2023-04-18T20:16:34.617Z,97654.50
2023-04-18T20:19:03.942Z,97645.19
2023-04-18T20:21:32.613Z,97655.56
2023-04-18T20:24:03.513Z,97645.81
2023-04-18T20:26:31.642Z,97647.69
2023-04-18T20:29:00.227Z,97646.13
2023-04-18T20:31:29.105Z,97646.94
2023-04-18T20:33:57.516Z,97647.97
2023-04-18T20:36:25.796Z,97653.34
2023-04-18T20:38:54.173Z,97651.69
2023-04-18T20:41:26.487Z,97654.91
2023-04-18T20:43:54.930Z,97644.25
2023-04-18T20:46:23.310Z,97642.59
2023-04-18T20:48:51.626Z,97643.31
2023-04-18T20:51:19.817Z,97632.75
2023-04-18T20:53:48.108Z,97635.97
2023-04-18T20:56:16.092Z,97634.50
2023-04-18T20:58:46.817Z,97643.75
2023-04-18T21:01:15.252Z,97641.72
2023-04-18T21:03:44.059Z,97636.53
2023-04-18T21:06:12.369Z,97628.75
2023-04-18T21:08:40.669Z,97634.34
2023-04-18T21:11:09.078Z,97633.84
2023-04-18T21:13:38.572Z,97631.94
2023-04-18T21:16:10.558Z,97634.75
2023-04-18T21:18:39.011Z,97626.75
2023-04-18T21:21:07.577Z,97627.81
2023-04-18T21:23:42.832Z,97619.06
2023-04-18T21:26:13.417Z,97624.06
2023-04-18T21:28:59.001Z,97623.34
2023-04-18T21:31:31.888Z,97625.00
2023-04-18T21:34:01.597Z,97617.13
2023-04-18T21:36:30.983Z,97617.44
2023-04-18T21:39:00.529Z,97615.97
2023-04-18T21:41:29.180Z,97611.91
2023-04-18T21:43:57.355Z,97615.22
2023-04-18T21:46:25.583Z,97611.06
2023-04-18T21:48:55.525Z,97611.06
2023-04-18T21:51:23.803Z,97615.22
2023-04-18T21:53:52.121Z,97608.47
2023-04-18T21:56:20.277Z,97599.22
2023-04-18T21:58:48.721Z,97592.06
2023-04-18T22:01:17.285Z,97599.13
2023-04-18T22:03:46.316Z,97596.16
2023-04-18T22:06:17.455Z,97590.63
2023-04-18T22:08:45.614Z,97588.84
2023-04-18T22:11:16.055Z,97586.25
2023-04-18T22:13:44.864Z,97583.78
2023-04-18T22:16:24.622Z,97582.03
2023-04-18T22:18:53.093Z,97585.44
2023-04-18T22:21:22.903Z,97582.84
2023-04-18T22:23:51.291Z,97579.31
2023-04-18T22:26:19.489Z,97579.31
2023-04-18T22:28:48.186Z,97570.31
2023-04-18T22:31:16.831Z,97573.09
2023-04-18T22:33:47.852Z,97570.69
2023-04-18T22:36:16.535Z,97568.22
2023-04-18T22:38:45.965Z,97571.44
2023-04-18T22:41:14.159Z,97567.06
2023-04-18T22:43:42.422Z,97563.66
2023-04-18T22:46:11.647Z,97569.66
2023-04-18T22:48:39.925Z,97563.66
2023-04-18T22:51:08.033Z,97559.38
2023-04-18T22:53:36.137Z,97557.53
2023-04-18T22:56:06.659Z,97555.97
2023-04-18T22:58:34.773Z,97556.69
2023-04-18T23:01:03.660Z,97562.72
2023-04-18T23:03:34.441Z,97552.16
2023-04-18T23:06:02.913Z,97545.09
2023-04-18T23:08:31.616Z,97547.78
2023-04-18T23:10:59.886Z,97545.09
2023-04-18T23:13:29.393Z,97542.59
2023-04-18T23:15:57.685Z,97544.81
2023-04-18T23:18:26.289Z,97539.81
2023-04-18T23:20:54.389Z,97534.63
2023-04-18T23:23:22.479Z,97538.78
2023-04-18T23:25:50.741Z,97533.28
2023-04-18T23:28:18.944Z,97527.59
2023-04-18T23:30:50.273Z,97534.44
2023-04-18T23:33:18.359Z,97534.53
2023-04-18T23:35:46.670Z,97534.22
2023-04-18T23:38:15.075Z,97532.78
2023-04-18T23:40:43.094Z,97533.47
2023-04-18T23:43:11.287Z,97518.88
2023-04-18T23:45:39.479Z,97516.97
2023-04-18T23:48:09.276Z,97521.16
2023-04-18T23:50:38.155Z,97511.69
2023-04-18T23:53:07.679Z,97503.19
2023-04-18T23:55:35.705Z,97502.25
2023-04-18T23:58:03.940Z,97500.59
